CST,Max TemperatureF,Mean TemperatureF,Min TemperatureF,Max Dew PointF,MeanDew PointF,Min DewpointF,Max Humidity, Mean Humidity, Min Humidity, Max Sea Level PressureIn, Mean Sea Level PressureIn, Min Sea Level PressureIn, Max VisibilityMiles, Mean VisibilityMiles, Min VisibilityMiles, Max Wind SpeedMPH, Mean Wind SpeedMPH, Max Gust SpeedMPH,PrecipitationIn, CloudCover, Events, WindDirDegrees
2014-2-1,70,58,46,56,49,39,97,78,55,30.15,30.11,30.08,10,8,0,12,3,,0.00,5,Fog,145
2014-2-2,75,63,51,63,57,50,100,89,50,30.15,30.08,30.01,10,4,0,12,3,22,0.00,8,Fog,154
2014-2-3,68,60,51,66,57,46,97,89,75,30.13,30.07,29.99,10,7,2,15,8,21,0.14,8,Rain,333
2014-2-4,69,58,48,66,57,45,100,91,81,30.11,30.04,29.94,10,5,0,14,6,21,0.00,8,Fog-Rain,118
2014-2-5,70,54,39,68,49,30,97,76,51,30.27,30.10,29.94,10,9,1,15,11,24,0.06,5,Rain,324
2014-2-6,39,36,33,34,29,26,89,73,60,30.35,30.30,30.25,10,9,3,14,8,21,0.02,5,Rain,8
2014-2-7,59,44,30,41,34,28,92,73,42,30.35,30.28,30.22,10,7,2,10,5,16,0.00,1,Rain,18
2014-2-8,61,52,39,45,42,38,93,84,56,30.25,30.22,30.16,10,8,5,6,2,,0.01,4,Rain,33
2014-2-9,69,52,35,48,42,33,93,72,39,30.22,30.14,30.08,10,8,3,10,2,,0.00,0,,262
2014-2-10,69,54,39,59,47,39,97,89,61,30.16,30.11,30.06,10,5,0,9,1,,0.02,7,Fog,278
2014-2-11,54,50,46,52,49,44,96,92,88,30.14,30.09,30.02,10,4,2,12,6,21,0.06,8,Rain,35
2014-2-12,48,44,39,47,43,36,100,94,87,30.04,29.88,29.78,10,4,1,15,9,28,0.00,8,Rain-Thunderstorm,36
2014-2-13,57,45,32,37,34,30,92,77,37,30.03,29.95,29.86,10,10,8,15,9,21,0.00,5,,319
2014-2-14,63,46,28,52,38,27,100,78,39,30.05,29.97,29.83,10,7,0,20,4,43,0.00,3,Fog-Rain,218
2014-2-15,60,48,33,45,35,27,92,65,29,30.18,30.10,29.91,10,10,5,14,8,21,0.00,0,,327
2014-2-16,71,50,28,43,34,27,93,64,22,30.23,30.18,30.13,10,9,5,10,2,,0.00,0,,205
2014-2-17,71,55,39,60,51,37,97,86,59,30.23,30.18,30.15,10,8,0,16,3,20,0.00,7,Fog-Rain,182
2014-2-18,78,66,55,63,59,53,97,84,52,30.22,30.17,30.12,10,7,1,14,3,21,0.00,6,Rain,196
2014-2-19,75,64,53,64,61,52,96,84,64,30.15,30.10,30.05,10,9,4,14,5,18,0.00,6,,183
2014-2-20,75,70,64,67,64,63,100,89,64,30.09,30.04,29.95,10,6,2,20,7,29,0.00,8,Rain,158
2014-2-21,70,56,43,67,49,29,100,69,22,30.11,30.00,29.88,10,7,1,21,10,40,0.00,5,Rain-Thunderstorm,309
2014-2-22,71,54,37,47,35,27,89,58,21,30.19,30.11,30.05,10,10,10,12,2,,0.00,0,,62
2014-2-23,66,56,46,64,55,44,100,93,74,30.09,30.04,29.99,10,6,1,8,2,,0.00,8,Rain-Thunderstorm,111
2014-2-24,75,64,52,62,57,49,97,83,41,30.15,30.07,30.01,10,6,0,8,3,,0.00,4,Fog,337
2014-2-25,77,62,48,54,51,46,97,76,42,30.10,30.03,29.94,10,8,0,8,1,,0.00,3,Fog,233
2014-2-26,61,51,39,60,49,30,100,89,62,30.02,29.92,29.86,10,7,2,13,4,25,0.00,7,Rain,351
2014-2-27,55,42,28,32,23,14,88,53,23,30.09,30.04,29.99,10,10,10,10,7,17,0.00,0,,346
2014-2-28,63,43,23,37,26,18,92,58,19,30.16,30.11,30.05,10,10,7,10,2,,0.00,0,,135